Time;durP1;ratioP1;P1;durP2;ratioP2;P2;SDS_P1;SDS_P2;PMS_P1;PMS_P2;Temp;Humidity;BMP_temperature;BMP_pressure;BME280_temperature;BME280_humidity;BME280_pressure;Samples;Min_cycle;Max_cycle;Signal;HPM_P1;HPM_P2
2021/05/13 00:00:47;;;;;;;5.60;2.93;;;10.70;99.90;;;;;;6201505;23;20170;-79
2021/05/13 00:03:14;;;;;;;11.50;3.63;;;10.70;99.90;;;;;;6204158;23;20240;-81
2021/05/13 00:05:40;;;;;;;12.43;3.47;;;10.60;99.90;;;;;;6203015;23;20261;-81
2021/05/13 00:08:06;;;;;;;8.70;3.57;;;10.60;99.90;;;;;;6202451;23;20198;-79
2021/05/13 00:10:34;;;;;;;12.87;3.70;;;10.50;99.90;;;;;;6203840;23;20178;-78
2021/05/13 00:13:01;;;;;;;10.73;3.67;;;10.50;99.90;;;;;;6203026;23;20175;-80
2021/05/13 00:15:29;;;;;;;10.50;3.87;;;10.50;99.90;;;;;;6202852;23;20248;-77
2021/05/13 00:17:56;;;;;;;10.73;3.23;;;10.50;99.90;;;;;;6203426;23;20424;-75
2021/05/13 00:20:25;;;;;;;13.23;3.53;;;10.40;99.90;;;;;;6203462;23;20739;-76
2021/05/13 00:22:51;;;;;;;7.73;3.10;;;10.40;99.90;;;;;;6203550;23;20198;-80
2021/05/13 00:25:18;;;;;;;9.00;2.83;;;10.40;99.90;;;;;;6204665;23;20817;-80
2021/05/13 00:27:45;;;;;;;7.70;2.67;;;10.40;99.90;;;;;;6204293;23;20185;-75
2021/05/13 00:30:13;;;;;;;7.73;2.30;;;10.30;99.90;;;;;;6203364;23;20174;-76
2021/05/13 00:32:40;;;;;;;7.07;2.80;;;10.40;99.90;;;;;;6204262;23;20170;-78
2021/05/13 00:35:09;;;;;;;8.87;3.00;;;10.30;99.90;;;;;;6204389;23;20178;-80
2021/05/13 00:37:35;;;;;;;7.80;2.30;;;10.30;99.90;;;;;;6204359;23;20286;-80
2021/05/13 00:40:02;;;;;;;6.57;2.57;;;10.30;99.90;;;;;;6203686;23;20185;-80
2021/05/13 00:42:28;;;;;;;6.83;2.27;;;10.20;99.90;;;;;;6202557;23;20193;-78
2021/05/13 00:44:56;;;;;;;8.30;3.30;;;10.20;99.90;;;;;;6204017;23;20173;-80
2021/05/13 00:47:24;;;;;;;8.33;2.60;;;10.20;99.90;;;;;;6204836;23;20174;-80
2021/05/13 00:49:51;;;;;;;9.40;3.10;;;10.20;99.90;;;;;;6204729;23;20265;-77
2021/05/13 00:52:19;;;;;;;11.80;2.73;;;10.20;99.90;;;;;;6206627;23;20240;-81
2021/05/13 00:54:46;;;;;;;6.87;2.77;;;10.10;99.90;;;;;;6205760;23;20173;-79
2021/05/13 00:57:13;;;;;;;12.73;2.87;;;10.10;99.90;;;;;;6205540;23;20444;-79
2021/05/13 00:59:42;;;;;;;6.23;2.63;;;10.10;99.90;;;;;;6205332;23;20793;-79
2021/05/13 01:02:09;;;;;;;7.17;2.67;;;10.00;99.90;;;;;;6206236;23;20236;-80
2021/05/13 01:04:36;;;;;;;6.73;2.60;;;10.00;99.90;;;;;;6205874;23;20172;-80
2021/05/13 01:07:02;;;;;;;10.90;3.40;;;10.00;99.90;;;;;;6206546;23;20228;-78
2021/05/13 01:09:31;;;;;;;9.87;2.93;;;10.00;99.90;;;;;;6205526;23;20167;-79
2021/05/13 01:11:59;;;;;;;8.50;2.97;;;9.90;99.90;;;;;;6205336;23;20471;-75
2021/05/13 01:14:28;;;;;;;10.77;2.50;;;9.90;99.90;;;;;;6204980;23;20205;-81
2021/05/13 01:17:01;;;;;;;6.27;2.63;;;9.90;99.90;;;;;;6206272;23;20177;-80
2021/05/13 01:19:28;;;;;;;11.47;2.80;;;9.80;99.90;;;;;;6205246;23;20265;-79
2021/05/13 01:21:55;;;;;;;9.07;3.20;;;9.80;99.90;;;;;;6207243;23;20216;-80
2021/05/13 01:24:23;;;;;;;7.07;2.60;;;9.80;99.90;;;;;;6207358;23;20174;-78
2021/05/13 01:26:50;;;;;;;8.70;3.00;;;9.80;99.90;;;;;;6206116;23;20249;-79
2021/05/13 01:29:18;;;;;;;4.90;2.33;;;9.80;99.90;;;;;;6206289;23;20233;-80
2021/05/13 01:31:45;;;;;;;3.93;2.20;;;9.70;99.90;;;;;;6205573;23;20170;-80
2021/05/13 01:34:11;;;;;;;6.33;2.60;;;9.70;99.90;;;;;;6203656;23;20232;-77
2021/05/13 01:36:38;;;;;;;7.27;2.70;;;9.70;99.90;;;;;;6204958;23;20567;-78
2021/05/13 01:39:07;;;;;;;6.83;2.53;;;9.70;99.90;;;;;;6204245;23;20178;-80
2021/05/13 01:41:33;;;;;;;5.67;2.73;;;9.70;99.90;;;;;;6205673;23;20190;-77
2021/05/13 01:44:00;;;;;;;4.43;2.17;;;9.60;99.90;;;;;;6204673;23;20713;-79
2021/05/13 01:46:26;;;;;;;4.50;2.40;;;9.60;99.90;;;;;;6204840;23;20181;-80
2021/05/13 01:48:52;;;;;;;5.27;1.90;;;9.60;99.90;;;;;;6205734;23;20422;-78
2021/05/13 01:51:19;;;;;;;5.17;2.10;;;9.50;99.90;;;;;;6206585;23;20174;-79
2021/05/13 01:53:45;;;;;;;5.63;2.50;;;9.50;99.90;;;;;;6204976;23;20185;-78
2021/05/13 01:56:13;;;;;;;4.43;2.30;;;9.40;99.90;;;;;;6205615;23;20217;-79
2021/05/13 01:58:41;;;;;;;10.20;3.57;;;9.40;99.90;;;;;;6204870;23;20170;-75
2021/05/13 02:01:09;;;;;;;4.33;2.97;;;9.40;99.90;;;;;;6205002;23;20174;-79
2021/05/13 02:03:36;;;;;;;7.20;3.10;;;9.30;99.90;;;;;;6204646;23;20174;-78
2021/05/13 02:06:03;;;;;;;6.47;2.60;;;9.30;99.90;;;;;;6205414;23;20170;-79
2021/05/13 02:08:30;;;;;;;7.67;3.07;;;9.20;99.90;;;;;;6203365;23;20458;-78
2021/05/13 02:10:56;;;;;;;6.83;3.17;;;9.20;99.90;;;;;;6203154;23;20170;-79
2021/05/13 02:13:23;;;;;;;4.87;2.53;;;9.20;99.90;;;;;;6202434;23;20188;-77
2021/05/13 02:15:49;;;;;;;6.50;2.73;;;9.10;99.90;;;;;;6202494;23;20201;-77
2021/05/13 02:18:16;;;;;;;7.97;2.73;;;9.10;99.90;;;;;;6203862;23;20174;-80
2021/05/13 02:20:42;;;;;;;4.37;2.50;;;9.10;99.90;;;;;;6202912;23;20549;-80
2021/05/13 02:23:08;;;;;;;5.70;2.57;;;9.10;99.90;;;;;;6204445;23;20204;-76
2021/05/13 02:25:37;;;;;;;4.13;2.40;;;9.00;99.90;;;;;;6204268;23;20193;-77
2021/05/13 02:28:03;;;;;;;6.07;3.33;;;9.00;99.90;;;;;;6204416;23;20174;-80
2021/05/13 02:30:30;;;;;;;6.47;3.10;;;9.00;99.90;;;;;;6204969;23;20205;-74
2021/05/13 02:32:56;;;;;;;4.40;2.97;;;9.00;99.90;;;;;;6204914;23;20170;-79
2021/05/13 02:35:23;;;;;;;7.00;3.30;;;9.00;99.90;;;;;;6204828;23;20177;-79
2021/05/13 02:37:49;;;;;;;5.43;3.03;;;8.90;99.90;;;;;;6204587;23;20178;-75
2021/05/13 02:40:17;;;;;;;3.40;2.43;;;8.90;99.90;;;;;;6205009;23;20185;-75
2021/05/13 02:42:45;;;;;;;3.77;2.67;;;8.90;99.90;;;;;;6203873;23;20217;-79
2021/05/13 02:45:12;;;;;;;4.10;2.50;;;8.90;99.90;;;;;;6204414;23;20174;-77
2021/05/13 02:47:39;;;;;;;4.37;2.77;;;8.80;99.90;;;;;;6204126;23;20717;-80
2021/05/13 02:50:09;;;;;;;6.10;2.90;;;8.80;99.90;;;;;;6204130;23;20185;-76
2021/05/13 02:52:35;;;;;;;5.40;2.43;;;8.80;99.90;;;;;;6204383;23;20174;-75
2021/05/13 02:55:02;;;;;;;7.20;2.97;;;8.70;99.90;;;;;;6204283;23;20166;-78
2021/05/13 02:57:28;;;;;;;8.37;2.97;;;8.70;99.90;;;;;;6204325;23;20178;-75
2021/05/13 02:59:59;;;;;;;4.23;2.80;;;8.70;99.90;;;;;;6204454;23;20563;-79
2021/05/13 03:02:26;;;;;;;4.23;2.77;;;8.70;99.90;;;;;;6205462;23;20186;-79
2021/05/13 03:04:53;;;;;;;4.00;2.60;;;8.70;99.90;;;;;;6204316;23;20174;-77
2021/05/13 03:07:19;;;;;;;6.23;2.90;;;8.70;99.90;;;;;;6204975;23;20193;-74
2021/05/13 03:09:47;;;;;;;4.37;2.73;;;8.60;99.90;;;;;;6204048;23;20184;-76
2021/05/13 03:12:13;;;;;;;4.87;2.90;;;8.60;99.90;;;;;;6203939;23;20266;-80
2021/05/13 03:14:40;;;;;;;5.90;2.80;;;8.60;99.90;;;;;;6204034;23;20433;-76
2021/05/13 03:17:06;;;;;;;4.83;2.57;;;8.50;99.90;;;;;;6203798;23;20169;-78
2021/05/13 03:19:39;;;;;;;6.07;2.63;;;8.50;99.90;;;;;;6204638;23;20836;-79
2021/05/13 03:22:09;;;;;;;7.17;3.40;;;8.50;99.90;;;;;;6203807;23;20197;-79
2021/05/13 03:24:42;;;;;;;8.37;3.50;;;8.50;99.90;;;;;;6205245;23;20170;-78
2021/05/13 03:27:12;;;;;;;8.17;3.23;;;8.50;99.90;;;;;;6204799;23;20266;-77
2021/05/13 03:29:39;;;;;;;5.40;2.60;;;8.40;99.90;;;;;;6203871;23;20262;-75
2021/05/13 03:32:05;;;;;;;4.07;2.80;;;8.40;99.90;;;;;;6203079;23;20170;-77
2021/05/13 03:34:32;;;;;;;6.87;3.70;;;8.40;99.90;;;;;;6204910;23;20240;-80
2021/05/13 03:36:58;;;;;;;4.73;2.63;;;8.40;99.90;;;;;;6203846;23;20173;-80
2021/05/13 03:39:25;;;;;;;6.33;2.90;;;8.30;99.90;;;;;;6203576;23;20947;-75
2021/05/13 03:41:51;;;;;;;7.07;3.10;;;8.30;99.90;;;;;;6204163;23;20247;-77
2021/05/13 03:44:18;;;;;;;3.57;2.97;;;8.30;99.90;;;;;;6203725;23;20276;-79
2021/05/13 03:46:44;;;;;;;5.47;2.53;;;8.30;99.90;;;;;;6202730;23;20182;-80
2021/05/13 03:49:10;;;;;;;7.13;3.20;;;8.30;99.90;;;;;;6204092;23;20170;-80
2021/05/13 03:51:36;;;;;;;7.97;3.97;;;8.30;99.90;;;;;;6204397;23;20173;-81
2021/05/13 03:54:03;;;;;;;6.30;3.43;;;8.30;99.90;;;;;;6202770;23;20177;-77
2021/05/13 03:56:30;;;;;;;8.10;3.20;;;8.30;99.90;;;;;;6203886;23;20177;-79
2021/05/13 03:58:59;;;;;;;6.83;2.90;;;8.30;99.90;;;;;;6204416;23;20166;-76
2021/05/13 04:01:44;;;;;;;6.80;3.60;;;8.20;99.90;;;;;;6202783;23;20202;-75
2021/05/13 04:04:11;;;;;;;9.60;3.90;;;8.20;99.90;;;;;;6202848;23;20170;-76
2021/05/13 04:06:37;;;;;;;8.00;2.93;;;8.20;99.90;;;;;;6203376;23;20174;-81
2021/05/13 04:09:08;;;;;;;7.47;3.30;;;8.20;99.90;;;;;;6203780;23;20232;-75
2021/05/13 04:11:35;;;;;;;5.20;3.00;;;8.20;99.90;;;;;;6203678;23;20173;-80
2021/05/13 04:14:02;;;;;;;6.47;3.43;;;8.30;99.90;;;;;;6203557;23;20181;-76
2021/05/13 04:16:29;;;;;;;5.67;3.50;;;8.30;99.90;;;;;;6202843;23;20239;-77
2021/05/13 04:18:55;;;;;;;5.80;3.17;;;8.30;99.90;;;;;;6202941;23;20170;-81
2021/05/13 04:21:22;;;;;;;8.27;3.20;;;8.30;99.90;;;;;;6202402;23;20174;-81
2021/05/13 04:23:48;;;;;;;7.67;3.80;;;8.30;99.90;;;;;;6202642;23;20268;-79
2021/05/13 04:26:14;;;;;;;6.00;3.33;;;8.40;99.90;;;;;;6178255;23;20928;-77
2021/05/13 04:28:41;;;;;;;6.17;3.30;;;8.40;99.90;;;;;;6203059;23;20539;-81
2021/05/13 04:31:07;;;;;;;7.57;3.33;;;8.40;99.90;;;;;;6204777;23;20224;-75
2021/05/13 04:33:34;;;;;;;5.63;3.47;;;8.50;99.90;;;;;;6204145;23;20703;-74
2021/05/13 04:36:00;;;;;;;4.63;3.27;;;8.50;99.90;;;;;;6202703;23;20178;-80
2021/05/13 04:38:26;;;;;;;4.20;2.93;;;8.50;99.90;;;;;;6204614;23;20530;-76
2021/05/13 04:40:53;;;;;;;6.03;3.10;;;8.50;99.90;;;;;;6203758;23;20185;-76
2021/05/13 04:43:20;;;;;;;6.17;3.07;;;8.60;99.90;;;;;;6203029;23;20592;-75
2021/05/13 04:45:48;;;;;;;6.57;3.63;;;8.60;99.90;;;;;;6203689;23;20557;-77
2021/05/13 04:48:17;;;;;;;9.23;3.37;;;8.70;99.90;;;;;;6203913;23;20197;-75
2021/05/13 04:50:43;;;;;;;7.53;3.70;;;8.70;99.90;;;;;;6202580;23;20320;-76
2021/05/13 04:53:11;;;;;;;5.87;3.33;;;8.80;99.90;;;;;;6203578;23;20174;-80
2021/05/13 04:55:38;;;;;;;5.13;3.53;;;8.80;99.90;;;;;;6202194;23;20178;-77
2021/05/13 04:58:04;;;;;;;6.50;3.77;;;8.90;99.90;;;;;;6204116;23;20181;-80
2021/05/13 05:00:31;;;;;;;9.37;3.60;;;8.90;99.90;;;;;;6204272;23;20180;-77
2021/05/13 05:02:58;;;;;;;7.50;4.03;;;9.00;99.90;;;;;;6202063;23;20271;-74
2021/05/13 05:05:25;;;;;;;8.10;4.33;;;9.00;99.90;;;;;;6203187;23;20174;-79
2021/05/13 05:07:51;;;;;;;11.10;4.30;;;9.10;99.90;;;;;;6203478;23;20198;-79
2021/05/13 05:10:18;;;;;;;12.23;4.43;;;9.10;99.90;;;;;;6202780;23;20166;-79
2021/05/13 05:12:44;;;;;;;9.77;4.70;;;9.20;99.90;;;;;;6202800;23;20166;-77
2021/05/13 05:15:12;;;;;;;11.60;4.80;;;9.30;99.90;;;;;;6203174;23;20178;-79
2021/05/13 05:17:38;;;;;;;9.23;4.43;;;9.40;99.90;;;;;;6202008;23;20190;-76
2021/05/13 05:20:07;;;;;;;14.60;6.87;;;9.50;99.90;;;;;;6203341;23;20178;-75
2021/05/13 05:22:33;;;;;;;14.53;5.50;;;9.60;99.90;;;;;;6203506;23;20194;-75
2021/05/13 05:25:00;;;;;;;13.80;5.33;;;9.80;99.90;;;;;;6202872;23;20170;-76
2021/05/13 05:27:26;;;;;;;11.80;5.87;;;9.90;99.90;;;;;;6203054;23;20871;-78
2021/05/13 05:29:52;;;;;;;9.53;4.90;;;10.00;99.90;;;;;;6203735;23;20213;-76
2021/05/13 05:32:19;;;;;;;10.10;5.20;;;10.10;99.90;;;;;;6275332;22;20218;-79
2021/05/13 05:34:46;;;;;;;10.83;5.20;;;10.20;99.90;;;;;;6294884;22;20804;-79
2021/05/13 05:37:13;;;;;;;16.53;5.97;;;10.20;99.90;;;;;;6295883;22;20207;-76
2021/05/13 05:39:40;;;;;;;14.33;5.70;;;10.40;99.90;;;;;;6295962;22;20176;-77
2021/05/13 05:42:06;;;;;;;9.40;5.03;;;10.50;99.90;;;;;;6296035;22;20192;-75
2021/05/13 05:44:32;;;;;;;18.10;6.50;;;10.60;99.90;;;;;;6296338;22;20181;-76
2021/05/13 05:46:58;;;;;;;11.90;5.77;;;10.80;99.90;;;;;;6295591;22;20172;-75
2021/05/13 05:49:25;;;;;;;15.70;5.93;;;11.10;99.90;;;;;;6295220;22;20176;-76
2021/05/13 05:51:51;;;;;;;18.07;7.07;;;11.50;99.90;;;;;;6294220;22;20172;-77
2021/05/13 05:54:19;;;;;;;12.37;6.10;;;12.00;99.90;;;;;;6296656;22;20187;-80
2021/05/13 05:56:45;;;;;;;10.03;5.87;;;12.50;99.90;;;;;;6295984;22;20348;-80
2021/05/13 05:59:11;;;;;;;14.47;5.63;;;13.00;99.90;;;;;;6298227;22;20854;-81
2021/05/13 06:01:38;;;;;;;12.23;5.90;;;13.50;99.90;;;;;;6297685;22;20176;-82
2021/05/13 06:04:05;;;;;;;13.33;5.67;;;13.90;99.90;;;;;;6298049;22;20175;-76
2021/05/13 06:06:32;;;;;;;11.77;5.27;;;14.30;99.90;;;;;;6298263;22;20457;-80
2021/05/13 06:08:58;;;;;;;11.03;4.47;;;14.70;99.90;;;;;;6266201;22;20196;-81
2021/05/13 06:11:25;;;;;;;10.97;4.67;;;15.10;99.90;;;;;;6266376;22;20209;-77
2021/05/13 06:13:51;;;;;;;7.87;4.70;;;15.50;99.90;;;;;;6266458;22;20469;-80
2021/05/13 06:16:18;;;;;;;8.77;4.37;;;15.70;99.90;;;;;;6267044;22;20180;-78
2021/05/13 06:18:52;;;;;;;10.63;4.68;;;16.10;99.90;;;;;;6266246;22;20184;-77
2021/05/13 06:21:18;;;;;;;9.25;4.68;;;16.30;99.90;;;;;;6265244;22;20227;-78
2021/05/13 06:23:49;;;;;;;12.00;4.22;;;16.60;99.90;;;;;;6265052;22;20200;-76
2021/05/13 06:26:23;;;;;;;15.93;4.85;;;16.90;99.90;;;;;;6264649;22;20187;-78
2021/05/13 06:28:50;;;;;;;10.48;3.97;;;17.00;99.90;;;;;;6262496;22;20712;-77
2021/05/13 06:31:17;;;;;;;11.23;4.30;;;17.40;99.90;;;;;;6263314;22;20200;-77
2021/05/13 06:33:43;;;;;;;8.18;4.28;;;17.70;99.90;;;;;;6261393;22;20177;-76
2021/05/13 06:36:09;;;;;;;12.52;4.70;;;17.90;99.90;;;;;;6263207;22;20549;-77
2021/05/13 06:38:36;;;;;;;7.30;4.38;;;18.00;99.90;;;;;;6263696;22;20176;-77
2021/05/13 06:41:05;;;;;;;10.43;4.20;;;18.10;99.90;;;;;;6262020;22;20247;-77
2021/05/13 06:50:25;;;;;;;9.20;5.10;;;17.90;99.90;;;;;;6072545;22;20606;-75
2021/05/13 06:52:51;;;;;;;7.32;4.25;;;18.10;99.90;;;;;;6264516;22;20193;-75
2021/05/13 06:55:18;;;;;;;8.40;4.53;;;18.20;99.90;;;;;;6262728;22;20168;-75
2021/05/13 06:57:44;;;;;;;9.98;4.55;;;18.10;99.90;;;;;;6263442;22;20636;-75
2021/05/13 07:00:11;;;;;;;8.20;4.63;;;18.20;99.90;;;;;;6255768;22;20836;-75
2021/05/13 07:02:37;;;;;;;10.80;4.85;;;18.40;99.90;;;;;;6263204;22;20188;-80
2021/05/13 07:05:05;;;;;;;8.02;4.15;;;18.80;99.90;;;;;;6263924;22;20180;-77
2021/05/13 07:07:35;;;;;;;7.00;4.22;;;19.10;99.90;;;;;;6263476;22;20800;-78
2021/05/13 07:10:01;;;;;;;5.43;4.15;;;19.30;99.90;;;;;;6263359;22;20863;-80
2021/05/13 07:12:27;;;;;;;7.50;4.38;;;19.70;99.90;;;;;;6262880;22;20175;-79
2021/05/13 07:14:54;;;;;;;5.65;4.25;;;20.00;99.90;;;;;;6263552;22;20176;-78
2021/05/13 07:17:20;;;;;;;5.75;3.90;;;20.00;99.90;;;;;;6262802;22;20177;-79
2021/05/13 07:19:46;;;;;;;7.70;4.03;;;20.40;99.90;;;;;;6263612;22;20173;-76
2021/05/13 07:22:13;;;;;;;13.00;5.00;;;20.70;99.90;;;;;;6264219;22;20197;-77
2021/05/13 07:24:41;;;;;;;8.50;4.32;;;20.50;99.90;;;;;;6263192;22;20290;-77
2021/05/13 07:27:09;;;;;;;7.40;4.93;;;20.20;99.90;;;;;;6263302;22;20200;-76
2021/05/13 07:29:36;;;;;;;7.47;4.45;;;19.80;99.90;;;;;;6263196;22;20176;-79
2021/05/13 07:32:03;;;;;;;7.63;4.82;;;19.30;99.90;;;;;;6262722;22;20460;-76
2021/05/13 07:34:29;;;;;;;8.13;5.10;;;19.00;99.90;;;;;;6263400;22;20188;-78
2021/05/13 07:36:55;;;;;;;11.23;4.93;;;18.80;99.90;;;;;;6262530;22;20180;-77
2021/05/13 07:39:22;;;;;;;6.95;4.50;;;18.70;99.90;;;;;;6262633;22;20176;-78
2021/05/13 07:41:49;;;;;;;8.73;4.25;;;18.90;99.90;;;;;;6262597;22;20432;-79
2021/05/13 07:44:15;;;;;;;9.27;5.45;;;19.00;99.90;;;;;;6262357;22;20181;-78
2021/05/13 07:46:42;;;;;;;9.18;4.95;;;19.00;99.90;;;;;;6262485;22;20976;-79
2021/05/13 07:49:09;;;;;;;11.00;5.22;;;19.10;99.90;;;;;;6263057;22;20280;-77
2021/05/13 07:51:35;;;;;;;7.05;5.15;;;19.20;99.90;;;;;;6261791;22;20226;-78
2021/05/13 07:54:02;;;;;;;8.52;5.50;;;19.60;99.90;;;;;;6262596;22;20561;-79
2021/05/13 07:56:29;;;;;;;9.30;5.20;;;19.80;99.90;;;;;;6262891;22;20175;-79
2021/05/13 07:58:56;;;;;;;11.30;4.80;;;19.60;99.90;;;;;;6262711;22;20536;-79
2021/05/13 08:01:22;;;;;;;6.72;4.50;;;19.90;99.90;;;;;;6262978;22;20168;-79
2021/05/13 08:03:48;;;;;;;10.32;5.70;;;20.10;99.90;;;;;;6263813;22;20201;-78
2021/05/13 08:06:15;;;;;;;11.02;5.60;;;19.80;99.90;;;;;;6263286;22;20165;-80
2021/05/13 08:08:41;;;;;;;11.50;5.97;;;20.10;99.90;;;;;;6263775;22;20192;-81
2021/05/13 08:11:07;;;;;;;14.43;5.95;;;19.90;99.90;;;;;;6262681;22;20188;-79
2021/05/13 08:13:34;;;;;;;12.30;6.03;;;19.90;99.90;;;;;;6262962;22;20227;-79
2021/05/13 08:16:02;;;;;;;11.23;5.10;;;20.10;99.90;;;;;;6263642;22;20244;-79
2021/05/13 08:18:28;;;;;;;9.45;5.65;;;20.40;99.90;;;;;;6262196;22;20255;-79
2021/05/13 08:20:55;;;;;;;9.75;4.80;;;20.60;99.90;;;;;;6264529;22;20165;-81
2021/05/13 08:23:21;;;;;;;11.15;5.70;;;21.00;99.90;;;;;;6263943;22;20188;-77
2021/05/13 08:25:47;;;;;;;9.07;5.15;;;21.10;99.90;;;;;;6262564;22;20172;-79
2021/05/13 08:28:14;;;;;;;9.32;5.63;;;21.20;99.90;;;;;;6262223;22;20565;-79
2021/05/13 08:30:40;;;;;;;11.75;6.13;;;21.30;99.90;;;;;;6262631;22;20230;-78
2021/05/13 08:33:07;;;;;;;10.43;5.93;;;21.30;99.90;;;;;;6261823;22;20187;-78
2021/05/13 08:35:34;;;;;;;9.13;5.32;;;20.80;99.90;;;;;;6261802;22;20495;-78
2021/05/13 08:38:00;;;;;;;8.25;5.15;;;20.60;99.90;;;;;;6262052;22;20820;-77
2021/05/13 08:40:26;;;;;;;11.45;5.88;;;20.40;99.90;;;;;;6262370;22;20596;-78
2021/05/13 08:42:52;;;;;;;8.88;5.15;;;20.30;99.90;;;;;;6261322;22;20254;-78
2021/05/13 08:45:20;;;;;;;8.60;5.07;;;20.50;99.90;;;;;;6263038;22;20259;-78
2021/05/13 08:47:46;;;;;;;6.50;4.75;;;20.50;99.90;;;;;;6261294;22;20188;-78
2021/05/13 08:50:15;;;;;;;9.50;6.00;;;20.60;99.90;;;;;;6262324;22;20565;-78
2021/05/13 08:52:41;;;;;;;11.38;6.15;;;20.70;99.90;;;;;;6262184;22;20874;-77
2021/05/13 08:55:08;;;;;;;9.68;5.15;;;20.70;99.90;;;;;;6261880;22;20616;-77
2021/05/13 08:57:35;;;;;;;9.13;5.20;;;20.60;99.90;;;;;;6262740;22;20177;-78
2021/05/13 09:00:01;;;;;;;9.05;5.10;;;20.60;99.90;;;;;;6262017;22;20480;-78
2021/05/13 09:02:29;;;;;;;6.72;4.72;;;21.00;99.90;;;;;;6261375;22;20243;-76
2021/05/13 09:04:57;;;;;;;9.00;5.35;;;21.20;99.90;;;;;;6262588;22;20233;-78
2021/05/13 09:07:27;;;;;;;9.90;5.40;;;21.10;99.90;;;;;;6262415;22;20222;-77
2021/05/13 09:10:03;;;;;;;10.40;5.75;;;21.30;99.90;;;;;;6263369;22;20633;-77
2021/05/13 09:12:31;;;;;;;7.10;4.70;;;21.20;99.90;;;;;;6264752;22;20266;-77
2021/05/13 09:14:59;;;;;;;12.02;5.95;;;21.20;99.90;;;;;;6264637;22;20172;-78
2021/05/13 09:17:26;;;;;;;8.73;4.93;;;21.10;99.90;;;;;;6264111;22;20917;-78
2021/05/13 09:19:53;;;;;;;7.05;5.07;;;21.10;99.90;;;;;;6264869;22;20177;-78
2021/05/13 09:22:23;;;;;;;10.60;5.65;;;21.40;99.90;;;;;;6263958;22;20237;-78
2021/05/13 09:24:54;;;;;;;6.03;4.60;;;21.50;99.90;;;;;;6263544;22;20173;-79
2021/05/13 09:27:23;;;;;;;7.93;4.50;;;21.70;99.90;;;;;;6264663;22;20280;-77
2021/05/13 09:30:02;;;;;;;7.10;4.63;;;22.00;99.90;;;;;;6263570;22;20176;-77
2021/05/13 09:32:29;;;;;;;10.90;4.63;;;21.70;99.90;;;;;;6263479;22;20196;-77
2021/05/13 09:34:55;;;;;;;9.32;4.68;;;21.50;99.90;;;;;;6264591;22;20169;-82
2021/05/13 09:37:35;;;;;;;7.10;4.00;;;21.60;99.90;;;;;;6264693;22;20846;-77
2021/05/13 09:40:02;;;;;;;7.72;5.32;;;21.80;99.90;;;;;;6264071;22;20220;-77
2021/05/13 09:42:28;;;;;;;7.80;4.10;;;21.90;99.90;;;;;;6264067;22;20200;-78
2021/05/13 09:44:55;;;;;;;8.73;4.93;;;21.90;99.90;;;;;;6263252;22;20169;-77
2021/05/13 09:47:26;;;;;;;7.60;4.65;;;22.20;99.90;;;;;;6263545;22;20176;-78
2021/05/13 09:50:02;;;;;;;7.55;5.15;;;22.40;99.90;;;;;;6263903;22;20493;-76
2021/05/13 09:52:39;;;;;;;7.32;4.78;;;22.10;99.90;;;;;;6263471;22;20168;-77
2021/05/13 09:55:19;;;;;;;6.57;5.32;;;22.10;99.90;;;;;;6264140;22;20172;-77
2021/05/13 09:57:50;;;;;;;8.57;5.15;;;21.70;99.90;;;;;;6263436;22;20536;-77
2021/05/13 10:00:36;;;;;;;8.60;5.65;;;21.50;99.90;;;;;;6264038;22;20188;-77
2021/05/13 10:03:04;;;;;;;9.10;5.07;;;21.40;99.90;;;;;;6263082;22;20193;-75
2021/05/13 10:05:30;;;;;;;6.10;4.85;;;21.00;99.90;;;;;;6262801;22;20541;-76
2021/05/13 10:07:56;;;;;;;6.32;4.82;;;20.60;99.90;;;;;;6263799;22;20200;-77
2021/05/13 10:10:23;;;;;;;5.85;3.75;;;20.80;99.90;;;;;;6263627;22;20314;-77
2021/05/13 10:12:54;;;;;;;6.72;4.82;;;21.30;99.90;;;;;;6262781;22;20168;-77
2021/05/13 10:15:20;;;;;;;7.85;5.05;;;21.50;99.90;;;;;;6263760;22;20161;-78
2021/05/13 10:17:51;;;;;;;6.50;4.55;;;21.70;99.90;;;;;;6264226;22;20584;-76
2021/05/13 10:20:20;;;;;;;6.25;4.75;;;21.70;99.90;;;;;;6263258;22;20252;-75
2021/05/13 10:22:47;;;;;;;11.15;5.30;;;21.70;99.90;;;;;;6263950;22;20504;-76
2021/05/13 10:25:23;;;;;;;6.90;5.03;;;21.30;99.90;;;;;;6263697;22;20177;-77
2021/05/13 10:27:54;;;;;;;8.23;5.25;;;21.40;99.90;;;;;;6263421;22;20231;-76
2021/05/13 10:30:23;;;;;;;7.38;5.10;;;21.00;99.90;;;;;;6263932;22;20180;-76
2021/05/13 10:33:08;;;;;;;8.48;5.20;;;20.90;99.90;;;;;;6263739;22;20203;-76
2021/05/13 10:35:35;;;;;;;8.52;5.03;;;21.10;99.90;;;;;;6262510;22;20169;-77
2021/05/13 10:38:06;;;;;;;10.20;5.45;;;21.10;99.90;;;;;;6264776;22;20180;-76
2021/05/13 10:40:44;;;;;;;6.07;4.70;;;20.90;99.90;;;;;;6263170;22;20180;-77
2021/05/13 10:43:11;;;;;;;8.77;4.60;;;20.60;99.90;;;;;;6263357;22;20295;-77
2021/05/13 10:45:45;;;;;;;9.40;4.90;;;20.70;99.90;;;;;;6264141;22;20207;-77
2021/05/13 10:48:18;;;;;;;8.75;5.07;;;20.70;99.90;;;;;;6262784;22;20176;-76
2021/05/13 10:50:51;;;;;;;7.55;5.00;;;20.50;99.90;;;;;;6263578;22;20890;-76
2021/05/13 10:53:39;;;;;;;8.27;5.15;;;20.90;99.90;;;;;;6264261;22;20229;-77
2021/05/13 10:56:17;;;;;;;10.57;5.25;;;20.90;99.90;;;;;;6262915;22;20801;-77
2021/05/13 10:59:03;;;;;;;11.10;6.13;;;20.60;99.90;;;;;;6264211;22;20171;-76
2021/05/13 11:01:37;;;;;;;9.13;5.47;;;20.60;99.90;;;;;;6262946;22;20176;-76
2021/05/13 11:04:40;;;;;;;9.70;5.05;;;20.50;99.90;;;;;;6261302;22;20210;-75
2021/05/13 11:07:29;;;;;;;7.82;5.60;;;20.60;99.90;;;;;;6263216;22;20615;-75
2021/05/13 11:10:01;;;;;;;9.68;5.68;;;20.50;99.90;;;;;;6263495;22;20169;-76
2021/05/13 11:12:37;;;;;;;10.30;5.95;;;20.20;99.90;;;;;;6262617;22;20180;-76
2021/05/13 11:15:08;;;;;;;7.13;5.00;;;20.20;99.90;;;;;;6264324;22;20168;-76
2021/05/13 11:18:05;;;;;;;8.27;5.63;;;20.20;99.90;;;;;;6263575;22;20165;-76
2021/05/13 11:20:33;;;;;;;9.50;4.88;;;20.40;99.90;;;;;;6263464;22;20176;-77
2021/05/13 11:23:04;;;;;;;8.55;5.70;;;20.60;99.90;;;;;;6262718;22;20199;-76
2021/05/13 11:25:36;;;;;;;10.70;4.82;;;20.80;99.90;;;;;;6263473;22;20180;-75
2021/05/13 11:28:20;;;;;;;8.43;5.65;;;20.50;99.90;;;;;;6262828;22;20172;-77
2021/05/13 11:30:47;;;;;;;8.35;4.82;;;20.60;99.90;;;;;;6262589;22;22431;-75
2021/05/13 11:33:14;;;;;;;6.60;5.13;;;20.70;99.90;;;;;;6263540;22;20528;-75
2021/05/13 11:35:40;;;;;;;8.25;4.30;;;20.60;99.90;;;;;;6263224;22;20226;-75
2021/05/13 11:38:17;;;;;;;8.40;4.90;;;21.00;99.90;;;;;;6262575;22;20187;-75
2021/05/13 11:40:44;;;;;;;5.50;4.03;;;21.00;99.90;;;;;;6263305;22;20903;-76
2021/05/13 11:43:23;;;;;;;10.52;4.40;;;21.00;99.90;;;;;;6262877;22;20578;-76
2021/05/13 11:45:51;;;;;;;9.45;4.63;;;21.10;99.90;;;;;;6261892;22;20156;-76
2021/05/13 11:48:22;;;;;;;8.02;4.25;;;21.50;99.90;;;;;;6263516;22;20168;-77
2021/05/13 11:50:49;;;;;;;8.77;5.05;;;21.80;99.90;;;;;;6262881;22;20177;-77
2021/05/13 11:53:18;;;;;;;6.78;4.57;;;21.50;99.90;;;;;;6264134;22;20169;-74
2021/05/13 11:55:45;;;;;;;6.78;4.47;;;21.20;99.90;;;;;;6262240;22;20210;-76
2021/05/13 11:58:14;;;;;;;10.07;4.90;;;21.30;99.90;;;;;;6262103;22;20222;-74
2021/05/13 12:00:42;;;;;;;8.30;4.97;;;21.20;99.90;;;;;;6263094;22;20165;-77
2021/05/13 12:03:12;;;;;;;9.05;3.80;;;21.00;99.90;;;;;;6263131;22;20615;-76
2021/05/13 12:05:46;;;;;;;6.25;4.13;;;20.90;99.90;;;;;;6263180;22;20238;-75
2021/05/13 12:08:15;;;;;;;8.30;4.47;;;20.90;99.90;;;;;;6263413;22;20202;-76
2021/05/13 12:10:41;;;;;;;6.95;3.78;;;20.90;99.90;;;;;;6263049;22;20169;-77
2021/05/13 12:13:07;;;;;;;6.60;3.08;;;21.10;99.90;;;;;;6262363;22;20168;-76
2021/05/13 12:15:34;;;;;;;5.75;3.55;;;21.40;99.90;;;;;;6262783;22;20175;-75
2021/05/13 12:18:01;;;;;;;6.15;4.00;;;21.70;99.90;;;;;;6263260;22;20180;-75
2021/05/13 12:20:27;;;;;;;8.35;4.53;;;21.60;99.90;;;;;;6262870;22;20173;-75
2021/05/13 12:22:54;;;;;;;7.25;3.92;;;21.60;99.90;;;;;;6262278;22;20204;-75
2021/05/13 12:25:20;;;;;;;4.43;3.38;;;21.70;99.90;;;;;;6263010;22;20172;-76
2021/05/13 12:27:47;;;;;;;7.50;3.85;;;22.10;99.90;;;;;;6262309;22;20195;-76
2021/05/13 12:30:17;;;;;;;5.53;2.92;;;22.40;99.90;;;;;;6263415;22;20183;-75
2021/05/13 12:32:43;;;;;;;6.43;3.25;;;22.60;99.90;;;;;;6261763;22;20203;-76
2021/05/13 12:35:25;;;;;;;7.20;3.53;;;22.80;99.90;;;;;;6262219;22;20237;-74
2021/05/13 12:37:52;;;;;;;7.40;3.20;;;22.90;99.90;;;;;;6262594;22;20202;-76
2021/05/13 12:40:19;;;;;;;7.75;3.08;;;23.00;99.90;;;;;;6261817;22;20177;-76
2021/05/13 12:42:46;;;;;;;5.95;2.67;;;23.10;99.90;;;;;;6262687;22;20196;-75
2021/05/13 12:45:13;;;;;;;4.95;3.08;;;23.00;99.90;;;;;;6261761;22;20180;-76
2021/05/13 12:47:39;;;;;;;5.78;3.05;;;23.00;99.90;;;;;;6261317;22;20200;-76
2021/05/13 12:50:07;;;;;;;4.15;2.35;;;22.70;99.90;;;;;;6261713;22;20173;-76
2021/05/13 12:52:34;;;;;;;6.35;3.10;;;22.50;99.90;;;;;;6262531;22;20173;-75
2021/05/13 12:55:11;;;;;;;5.85;3.35;;;22.40;99.90;;;;;;6261563;22;20179;-74
2021/05/13 12:57:41;;;;;;;9.65;3.90;;;22.00;99.90;;;;;;6262255;22;20422;-76
2021/05/13 13:00:09;;;;;;;8.38;4.03;;;21.80;99.90;;;;;;6261498;22;20903;-76